Alta, California
Current Conditions -  °F | °C
As of 11:52 PM on Monday 26 Jan 2015 (Local Time) from KBLU Reporting Station
Overcast Overcast  
Wind Chill: 47°   Ceiling: 11000
Heat Index: 49°   Visibility: 10mi
Dew Point: 24°   Wind: 5mph
Humidity: 38%   Direction: 130°SE
Pressure: 30.12"   Gusts: NA
Location:  39.21°N, 120.81°W
Report Text: KBLU 270752Z AUTO 13004KT 10SM OVC110 09/M04 A3012 RMK AO2 SLP150 T00941044 401610083
Loading
Personal Weather Stations






























Interactive Weather Map New forecast layout! Learn more

10-Day Weather Forecast

Advertisements
Track Severe Weather on mobile